sensor_id;sensor_type;location;lat;lon;timestamp;pressure;altitude;pressure_sealevel;temperature;humidity
73558;BME280;61829;53.286;10.434;2022-10-15T00:00:39;100422.63;;;13.95;92.34
73558;BME280;61829;53.286;10.434;2022-10-15T00:03:26;100423.06;;;13.91;92.43
73558;BME280;61829;53.286;10.434;2022-10-15T00:05:52;100416.81;;;13.91;92.27
73558;BME280;61829;53.286;10.434;2022-10-15T00:08:18;100406.63;;;13.93;92.57
73558;BME280;61829;53.286;10.434;2022-10-15T00:10:44;100407.63;;;13.92;92.77
73558;BME280;61829;53.286;10.434;2022-10-15T00:13:10;100408.69;;;13.91;92.81
73558;BME280;61829;53.286;10.434;2022-10-15T00:15:36;100410.59;;;13.90;92.92
73558;BME280;61829;53.286;10.434;2022-10-15T00:18:02;100402.66;;;13.89;92.95
73558;BME280;61829;53.286;10.434;2022-10-15T00:20:28;100402.47;;;13.90;92.65
73558;BME280;61829;53.286;10.434;2022-10-15T00:22:54;100401.41;;;13.91;92.91
73558;BME280;61829;53.286;10.434;2022-10-15T00:25:20;100404.09;;;13.91;93.16
73558;BME280;61829;53.286;10.434;2022-10-15T00:27:45;100402.47;;;13.90;92.84
73558;BME280;61829;53.286;10.434;2022-10-15T00:30:12;100398.06;;;13.89;93.25
73558;BME280;61829;53.286;10.434;2022-10-15T00:32:37;100396.81;;;13.92;93.22
73558;BME280;61829;53.286;10.434;2022-10-15T00:35:04;100400.34;;;13.92;93.26
73558;BME280;61829;53.286;10.434;2022-10-15T00:37:30;100404.94;;;13.92;93.32
73558;BME280;61829;53.286;10.434;2022-10-15T00:39:55;100402.22;;;13.92;93.35
73558;BME280;61829;53.286;10.434;2022-10-15T00:42:21;100403.28;;;13.91;93.14
73558;BME280;61829;53.286;10.434;2022-10-15T00:47:22;100398.69;;;13.91;93.38
73558;BME280;61829;53.286;10.434;2022-10-15T00:49:58;100407.63;;;13.92;93.10
73558;BME280;61829;53.286;10.434;2022-10-15T00:55:18;100399.50;;;13.92;93.47
73558;BME280;61829;53.286;10.434;2022-10-15T00:57:48;100395.53;;;13.95;93.29
73558;BME280;61829;53.286;10.434;2022-10-15T01:00:15;100396.81;;;13.92;93.50
73558;BME280;61829;53.286;10.434;2022-10-15T01:02:43;100398.50;;;13.93;93.32
73558;BME280;61829;53.286;10.434;2022-10-15T01:05:10;100400.13;;;13.94;93.56
73558;BME280;61829;53.286;10.434;2022-10-15T01:07:36;100402.03;;;13.93;93.57
73558;BME280;61829;53.286;10.434;2022-10-15T01:10:04;100393.47;;;13.97;93.71
73558;BME280;61829;53.286;10.434;2022-10-15T01:17:49;100390.13;;;13.95;93.63
73558;BME280;61829;53.286;10.434;2022-10-15T01:31:56;100382.81;;;13.95;93.79
73558;BME280;61829;53.286;10.434;2022-10-15T01:34:37;100382.81;;;13.95;93.89
73558;BME280;61829;53.286;10.434;2022-10-15T01:37:18;100382.63;;;13.97;93.96
73558;BME280;61829;53.286;10.434;2022-10-15T01:39:50;100384.50;;;13.96;93.56
73558;BME280;61829;53.286;10.434;2022-10-15T01:42:27;100374.69;;;13.95;93.90
73558;BME280;61829;53.286;10.434;2022-10-15T01:45:02;100373.88;;;13.95;93.72
73558;BME280;61829;53.286;10.434;2022-10-15T01:47:38;100374.69;;;13.95;93.79
73558;BME280;61829;53.286;10.434;2022-10-15T01:50:08;100380.53;;;13.99;93.58
73558;BME280;61829;53.286;10.434;2022-10-15T01:52:37;100379.91;;;13.97;93.66
73558;BME280;61829;53.286;10.434;2022-10-15T01:55:06;100387.41;;;13.95;93.79
73558;BME280;61829;53.286;10.434;2022-10-15T01:57:35;100382.00;;;13.95;93.96
73558;BME280;61829;53.286;10.434;2022-10-15T02:00:04;100386.59;;;13.94;93.80
73558;BME280;61829;53.286;10.434;2022-10-15T02:02:29;100384.50;;;13.96;93.54
73558;BME280;61829;53.286;10.434;2022-10-15T02:04:58;100379.69;;;13.98;93.29
73558;BME280;61829;53.286;10.434;2022-10-15T02:10:20;100380.34;;;13.93;93.24
73558;BME280;61829;53.286;10.434;2022-10-15T02:20:58;100377.03;;;13.91;92.83
73558;BME280;61829;53.286;10.434;2022-10-15T02:26:05;100370.16;;;13.89;92.66
73558;BME280;61829;53.286;10.434;2022-10-15T02:28:33;100363.72;;;13.90;92.45
73558;BME280;61829;53.286;10.434;2022-10-15T02:31:02;100362.25;;;13.87;92.64
73558;BME280;61829;53.286;10.434;2022-10-15T02:33:31;100364.34;;;13.85;92.45
73558;BME280;61829;53.286;10.434;2022-10-15T02:35:58;100361.03;;;13.83;92.42
73558;BME280;61829;53.286;10.434;2022-10-15T02:38:26;100358.56;;;13.82;92.23
73558;BME280;61829;53.286;10.434;2022-10-15T02:40:52;100363.97;;;13.82;91.67
73558;BME280;61829;53.286;10.434;2022-10-15T02:43:20;100365.44;;;13.78;91.12
73558;BME280;61829;53.286;10.434;2022-10-15T02:45:47;100366.09;;;13.73;90.10
73558;BME280;61829;53.286;10.434;2022-10-15T02:48:13;100368.19;;;13.71;89.60
73558;BME280;61829;53.286;10.434;2022-10-15T02:50:39;100358.81;;;13.67;88.49
73558;BME280;61829;53.286;10.434;2022-10-15T02:53:04;100363.03;;;13.63;88.10
73558;BME280;61829;53.286;10.434;2022-10-15T02:55:30;100363.88;;;13.57;87.84
73558;BME280;61829;53.286;10.434;2022-10-15T02:57:56;100357.84;;;13.55;87.56
73558;BME280;61829;53.286;10.434;2022-10-15T03:00:22;100364.75;;;13.51;87.43
73558;BME280;61829;53.286;10.434;2022-10-15T03:02:47;100364.56;;;13.45;87.14
73558;BME280;61829;53.286;10.434;2022-10-15T03:05:13;100363.31;;;13.41;86.84
73558;BME280;61829;53.286;10.434;2022-10-15T03:07:39;100365.44;;;13.39;86.82
73558;BME280;61829;53.286;10.434;2022-10-15T03:10:05;100370.00;;;13.39;87.32
73558;BME280;61829;53.286;10.434;2022-10-15T03:12:32;100365.44;;;13.39;86.87
73558;BME280;61829;53.286;10.434;2022-10-15T03:14:59;100372.94;;;13.37;86.88
73558;BME280;61829;53.286;10.434;2022-10-15T03:17:25;100372.31;;;13.35;87.18
73558;BME280;61829;53.286;10.434;2022-10-15T03:19:50;100373.13;;;13.36;86.71
73558;BME280;61829;53.286;10.434;2022-10-15T03:22:16;100375.25;;;13.34;87.16
73558;BME280;61829;53.286;10.434;2022-10-15T03:24:42;100373.56;;;13.33;87.17
73558;BME280;61829;53.286;10.434;2022-10-15T03:27:07;100372.09;;;13.30;87.02
73558;BME280;61829;53.286;10.434;2022-10-15T03:29:33;100373.41;;;13.28;86.66
73558;BME280;61829;53.286;10.434;2022-10-15T03:31:58;100374.00;;;13.23;86.80
73558;BME280;61829;53.286;10.434;2022-10-15T03:34:24;100373.78;;;13.18;86.80
73558;BME280;61829;53.286;10.434;2022-10-15T03:36:50;100379.25;;;13.11;86.80
73558;BME280;61829;53.286;10.434;2022-10-15T03:39:15;100383.41;;;13.07;86.79
73558;BME280;61829;53.286;10.434;2022-10-15T03:41:41;100381.53;;;13.01;86.81
73558;BME280;61829;53.286;10.434;2022-10-15T03:44:07;100380.50;;;12.95;86.90
73558;BME280;61829;53.286;10.434;2022-10-15T03:46:33;100383.00;;;12.90;86.92
73558;BME280;61829;53.286;10.434;2022-10-15T03:48:59;100384.50;;;12.86;86.87
73558;BME280;61829;53.286;10.434;2022-10-15T03:51:25;100377.00;;;12.81;86.99
73558;BME280;61829;53.286;10.434;2022-10-15T03:53:51;100384.91;;;12.76;86.87
73558;BME280;61829;53.286;10.434;2022-10-15T03:56:20;100383.69;;;12.72;86.92
73558;BME280;61829;53.286;10.434;2022-10-15T03:58:46;100380.56;;;12.69;87.08
73558;BME280;61829;53.286;10.434;2022-10-15T04:01:14;100388.25;;;12.65;87.35
73558;BME280;61829;53.286;10.434;2022-10-15T04:03:40;100387.66;;;12.63;87.83
73558;BME280;61829;53.286;10.434;2022-10-15T04:06:07;100388.06;;;12.60;87.78
73558;BME280;61829;53.286;10.434;2022-10-15T04:08:32;100381.22;;;12.57;87.79
73558;BME280;61829;53.286;10.434;2022-10-15T04:10:58;100381.00;;;12.52;87.27
73558;BME280;61829;53.286;10.434;2022-10-15T04:13:25;100382.47;;;12.48;87.21
73558;BME280;61829;53.286;10.434;2022-10-15T04:15:51;100382.25;;;12.43;87.35
73558;BME280;61829;53.286;10.434;2022-10-15T04:18:17;100392.63;;;12.40;87.06
73558;BME280;61829;53.286;10.434;2022-10-15T04:20:47;100391.56;;;12.34;87.08
73558;BME280;61829;53.286;10.434;2022-10-15T04:23:14;100391.41;;;12.29;87.06
73558;BME280;61829;53.286;10.434;2022-10-15T04:25:40;100398.47;;;12.23;87.02
73558;BME280;61829;53.286;10.434;2022-10-15T04:28:06;100402.59;;;12.19;87.01
73558;BME280;61829;53.286;10.434;2022-10-15T04:30:31;100402.19;;;12.16;87.39
73558;BME280;61829;53.286;10.434;2022-10-15T04:32:57;100402.59;;;12.12;87.55
73558;BME280;61829;53.286;10.434;2022-10-15T04:35:23;100402.78;;;12.11;87.75
73558;BME280;61829;53.286;10.434;2022-10-15T04:37:48;100407.59;;;12.09;87.61
73558;BME280;61829;53.286;10.434;2022-10-15T04:40:15;100395.31;;;12.06;87.73
73558;BME280;61829;53.286;10.434;2022-10-15T04:42:40;100407.13;;;12.05;88.12
73558;BME280;61829;53.286;10.434;2022-10-15T04:45:06;100410.06;;;12.04;88.13
73558;BME280;61829;53.286;10.434;2022-10-15T04:47:33;100408.78;;;12.00;89.08
73558;BME280;61829;53.286;10.434;2022-10-15T04:49:58;100408.38;;;11.96;89.97
73558;BME280;61829;53.286;10.434;2022-10-15T04:52:24;100413.13;;;11.94;89.83
73558;BME280;61829;53.286;10.434;2022-10-15T04:54:50;100412.53;;;11.92;90.28
73558;BME280;61829;53.286;10.434;2022-10-15T04:57:15;100414.59;;;11.90;90.68
73558;BME280;61829;53.286;10.434;2022-10-15T04:59:41;100409.59;;;11.87;90.97
73558;BME280;61829;53.286;10.434;2022-10-15T05:02:09;100414.34;;;11.85;91.30
73558;BME280;61829;53.286;10.434;2022-10-15T05:04:35;100419.72;;;11.85;91.30
73558;BME280;61829;53.286;10.434;2022-10-15T05:07:00;100420.59;;;11.85;91.23
73558;BME280;61829;53.286;10.434;2022-10-15T05:09:26;100422.66;;;11.83;91.59
73558;BME280;61829;53.286;10.434;2022-10-15T05:11:52;100427.84;;;11.85;91.59
73558;BME280;61829;53.286;10.434;2022-10-15T05:14:19;100419.72;;;11.85;92.38
73558;BME280;61829;53.286;10.434;2022-10-15T05:16:45;100421.59;;;11.84;92.53
73558;BME280;61829;53.286;10.434;2022-10-15T05:19:14;100426.19;;;11.84;92.85
73558;BME280;61829;53.286;10.434;2022-10-15T05:21:41;100430.38;;;11.86;92.77
73558;BME280;61829;53.286;10.434;2022-10-15T05:24:08;100429.50;;;11.86;93.01
73558;BME280;61829;53.286;10.434;2022-10-15T05:26:34;100425.81;;;11.87;92.88
73558;BME280;61829;53.286;10.434;2022-10-15T05:29:02;100431.19;;;11.87;93.09
73558;BME280;61829;53.286;10.434;2022-10-15T05:31:30;100433.91;;;11.87;93.20
73558;BME280;61829;53.286;10.434;2022-10-15T05:33:56;100431.19;;;11.87;93.01
73558;BME280;61829;53.286;10.434;2022-10-15T05:36:24;100444.47;;;11.88;93.14
73558;BME280;61829;53.286;10.434;2022-10-15T05:41:19;100436.38;;;11.88;92.93
73558;BME280;61829;53.286;10.434;2022-10-15T05:43:46;100435.56;;;11.88;92.86
73558;BME280;61829;53.286;10.434;2022-10-15T05:46:12;100443.25;;;11.91;92.71
73558;BME280;61829;53.286;10.434;2022-10-15T05:48:38;100451.97;;;11.93;92.99
73558;BME280;61829;53.286;10.434;2022-10-15T05:51:10;100449.09;;;11.95;92.49
73558;BME280;61829;53.286;10.434;2022-10-15T05:53:37;100452.63;;;11.95;92.79
73558;BME280;61829;53.286;10.434;2022-10-15T05:56:03;100445.34;;;11.96;92.46
73558;BME280;61829;53.286;10.434;2022-10-15T05:58:31;100447.81;;;11.97;92.25
73558;BME280;61829;53.286;10.434;2022-10-15T06:00:58;100450.34;;;11.99;92.41
73558;BME280;61829;53.286;10.434;2022-10-15T06:03:26;100451.16;;;11.99;92.27
73558;BME280;61829;53.286;10.434;2022-10-15T06:05:53;100450.97;;;12.01;91.72
73558;BME280;61829;53.286;10.434;2022-10-15T06:08:22;100444.53;;;12.02;91.66
73558;BME280;61829;53.286;10.434;2022-10-15T06:10:48;100447.03;;;12.03;91.27
73558;BME280;61829;53.286;10.434;2022-10-15T06:13:16;100449.34;;;12.06;91.01
73558;BME280;61829;53.286;10.434;2022-10-15T06:15:44;100452.03;;;12.06;90.68
73558;BME280;61829;53.286;10.434;2022-10-15T06:18:11;100447.47;;;12.07;90.72
73558;BME280;61829;53.286;10.434;2022-10-15T06:20:43;100451.63;;;12.09;90.94
73558;BME280;61829;53.286;10.434;2022-10-15T06:23:15;100452.22;;;12.11;90.89
73558;BME280;61829;53.286;10.434;2022-10-15T06:25:40;100454.75;;;12.13;90.54
73558;BME280;61829;53.286;10.434;2022-10-15T06:28:06;100458.06;;;12.15;90.75
73558;BME280;61829;53.286;10.434;2022-10-15T06:30:34;100460.38;;;12.18;90.42
73558;BME280;61829;53.286;10.434;2022-10-15T06:32:59;100468.06;;;12.21;91.08
73558;BME280;61829;53.286;10.434;2022-10-15T06:35:26;100467.66;;;12.24;90.53
73558;BME280;61829;53.286;10.434;2022-10-15T06:37:55;100465.78;;;12.25;90.24
73558;BME280;61829;53.286;10.434;2022-10-15T06:40:21;100471.59;;;12.28;89.33
73558;BME280;61829;53.286;10.434;2022-10-15T06:42:46;100470.34;;;12.31;89.52
73558;BME280;61829;53.286;10.434;2022-10-15T06:45:12;100471.63;;;12.35;88.94
73558;BME280;61829;53.286;10.434;2022-10-15T06:47:41;100476.63;;;12.38;89.10
73558;BME280;61829;53.286;10.434;2022-10-15T06:50:10;100471.44;;;12.43;89.51
73558;BME280;61829;53.286;10.434;2022-10-15T06:52:37;100485.34;;;12.47;88.61
73558;BME280;61829;53.286;10.434;2022-10-15T06:55:03;100479.75;;;12.48;88.28
73558;BME280;61829;53.286;10.434;2022-10-15T06:57:29;100482.03;;;12.51;88.26
73558;BME280;61829;53.286;10.434;2022-10-15T06:59:55;100484.94;;;12.56;87.83
73558;BME280;61829;53.286;10.434;2022-10-15T07:02:22;100484.13;;;12.63;88.05
73558;BME280;61829;53.286;10.434;2022-10-15T07:04:49;100492.66;;;12.66;87.32
73558;BME280;61829;53.286;10.434;2022-10-15T07:07:15;100485.59;;;12.72;86.69
73558;BME280;61829;53.286;10.434;2022-10-15T07:09:40;100488.94;;;12.74;86.40
73558;BME280;61829;53.286;10.434;2022-10-15T07:12:06;100491.22;;;12.77;86.12
73558;BME280;61829;53.286;10.434;2022-10-15T07:14:32;100496.22;;;12.80;85.96
73558;BME280;61829;53.286;10.434;2022-10-15T07:16:58;100491.63;;;12.87;85.84
73558;BME280;61829;53.286;10.434;2022-10-15T07:19:24;100502.66;;;12.92;85.49
73558;BME280;61829;53.286;10.434;2022-10-15T07:21:50;100508.66;;;13.01;85.26
73558;BME280;61829;53.286;10.434;2022-10-15T07:24:16;100516.16;;;13.12;85.97
73558;BME280;61829;53.286;10.434;2022-10-15T07:26:41;100517.81;;;13.20;84.90
73558;BME280;61829;53.286;10.434;2022-10-15T07:29:09;100519.06;;;13.24;84.75
73558;BME280;61829;53.286;10.434;2022-10-15T07:31:35;100516.81;;;13.28;84.39
73558;BME280;61829;53.286;10.434;2022-10-15T07:34:01;100513.03;;;13.35;83.50
73558;BME280;61829;53.286;10.434;2022-10-15T07:36:27;100517.81;;;13.40;83.43
73558;BME280;61829;53.286;10.434;2022-10-15T07:38:52;100502.38;;;13.47;82.83
73558;BME280;61829;53.286;10.434;2022-10-15T07:41:18;100507.78;;;13.60;82.70
73558;BME280;61829;53.286;10.434;2022-10-15T07:43:44;100502.91;;;13.76;82.71
73558;BME280;61829;53.286;10.434;2022-10-15T07:46:09;100503.56;;;13.78;82.04
73558;BME280;61829;53.286;10.434;2022-10-15T07:48:35;100508.09;;;13.90;81.92
73558;BME280;61829;53.286;10.434;2022-10-15T07:51:04;100496.25;;;14.23;80.12
73558;BME280;61829;53.286;10.434;2022-10-15T07:53:31;100509.03;;;14.48;79.85
73558;BME280;61829;53.286;10.434;2022-10-15T07:55:59;100500.88;;;14.61;79.59
73558;BME280;61829;53.286;10.434;2022-10-15T07:58:25;100505.66;;;14.59;78.53
73558;BME280;61829;53.286;10.434;2022-10-15T08:00:52;100503.72;;;14.66;78.24
73558;BME280;61829;53.286;10.434;2022-10-15T08:03:18;100508.06;;;14.99;77.52
73558;BME280;61829;53.286;10.434;2022-10-15T08:05:44;100512.22;;;15.26;76.85
73558;BME280;61829;53.286;10.434;2022-10-15T08:08:10;100512.66;;;15.42;75.96
73558;BME280;61829;53.286;10.434;2022-10-15T08:10:35;100507.56;;;15.52;75.14
73558;BME280;61829;53.286;10.434;2022-10-15T08:13:01;100516.00;;;15.44;74.72
73558;BME280;61829;53.286;10.434;2022-10-15T08:15:27;100518.47;;;15.45;74.34
73558;BME280;61829;53.286;10.434;2022-10-15T08:17:53;100525.22;;;15.61;73.93
73558;BME280;61829;53.286;10.434;2022-10-15T08:20:18;100524.19;;;15.81;72.74
73558;BME280;61829;53.286;10.434;2022-10-15T08:22:44;100526.66;;;15.82;73.02
73558;BME280;61829;53.286;10.434;2022-10-15T08:25:10;100515.75;;;15.89;72.79
73558;BME280;61829;53.286;10.434;2022-10-15T08:27:36;100510.81;;;15.98;72.68
73558;BME280;61829;53.286;10.434;2022-10-15T08:30:03;100515.72;;;16.07;71.54
73558;BME280;61829;53.286;10.434;2022-10-15T08:32:28;100518.66;;;16.06;71.54
73558;BME280;61829;53.286;10.434;2022-10-15T08:34:54;100514.22;;;16.11;72.52
73558;BME280;61829;53.286;10.434;2022-10-15T08:37:19;100505.34;;;16.16;71.82
73558;BME280;61829;53.286;10.434;2022-10-15T08:39:46;100510.00;;;16.27;71.50
73558;BME280;61829;53.286;10.434;2022-10-15T08:42:28;100502.63;;;16.46;70.80
73558;BME280;61829;53.286;10.434;2022-10-15T08:47:40;100517.56;;;16.55;70.44
73558;BME280;61829;53.286;10.434;2022-10-15T08:50:19;100525.66;;;16.74;70.01
73558;BME280;61829;53.286;10.434;2022-10-15T08:52:50;100523.41;;;16.71;69.72
73558;BME280;61829;53.286;10.434;2022-10-15T08:55:18;100520.28;;;16.86;69.29
73558;BME280;61829;53.286;10.434;2022-10-15T09:00:19;100516.41;;;17.17;68.54
73558;BME280;61829;53.286;10.434;2022-10-15T09:03:00;100519.72;;;17.19;67.52
73558;BME280;61829;53.286;10.434;2022-10-15T09:05:49;100513.81;;;17.22;67.80
73558;BME280;61829;53.286;10.434;2022-10-15T09:14:20;100507.22;;;17.93;66.19
73558;BME280;61829;53.286;10.434;2022-10-15T09:16:49;100516.09;;;17.77;64.80
73558;BME280;61829;53.286;10.434;2022-10-15T09:19:23;100509.22;;;17.74;65.55
73558;BME280;61829;53.286;10.434;2022-10-15T09:21:51;100521.47;;;17.84;64.45
73558;BME280;61829;53.286;10.434;2022-10-15T09:24:25;100522.75;;;17.93;65.13
73558;BME280;61829;53.286;10.434;2022-10-15T09:27:07;100519.06;;;17.99;64.94
73558;BME280;61829;53.286;10.434;2022-10-15T09:32:18;100512.41;;;18.07;63.91
73558;BME280;61829;53.286;10.434;2022-10-15T09:34:56;100509.06;;;18.05;63.66
73558;BME280;61829;53.286;10.434;2022-10-15T09:37:40;100515.47;;;18.10;64.80
73558;BME280;61829;53.286;10.434;2022-10-15T09:42:35;100512.34;;;18.18;65.13
73558;BME280;61829;53.286;10.434;2022-10-15T09:45:05;100510.75;;;18.34;64.00
73558;BME280;61829;53.286;10.434;2022-10-15T09:47:34;100512.13;;;18.49;63.90
73558;BME280;61829;53.286;10.434;2022-10-15T09:50:05;100507.31;;;18.56;62.88
73558;BME280;61829;53.286;10.434;2022-10-15T09:58:43;100513.75;;;18.50;62.45
73558;BME280;61829;53.286;10.434;2022-10-15T10:01:24;100516.25;;;18.51;62.09
73558;BME280;61829;53.286;10.434;2022-10-15T10:03:53;100513.69;;;18.61;63.04
73558;BME280;61829;53.286;10.434;2022-10-15T10:09:18;100510.47;;;18.65;62.47
73558;BME280;61829;53.286;10.434;2022-10-15T10:14:46;100510.38;;;18.88;60.99
73558;BME280;61829;53.286;10.434;2022-10-15T10:17:17;100517.63;;;18.99;61.93
73558;BME280;61829;53.286;10.434;2022-10-15T10:19:45;100513.75;;;19.12;60.52
73558;BME280;61829;53.286;10.434;2022-10-15T10:22:17;100514.63;;;19.35;59.91
73558;BME280;61829;53.286;10.434;2022-10-15T10:24:46;100513.34;;;19.59;60.54
73558;BME280;61829;53.286;10.434;2022-10-15T10:29:52;100512.50;;;19.76;57.79
73558;BME280;61829;53.286;10.434;2022-10-15T10:32:21;100514.59;;;19.68;57.89
73558;BME280;61829;53.286;10.434;2022-10-15T10:34:49;100511.94;;;19.57;59.26
73558;BME280;61829;53.286;10.434;2022-10-15T10:37:15;100512.38;;;19.48;58.66
73558;BME280;61829;53.286;10.434;2022-10-15T10:39:41;100507.41;;;19.45;58.96
73558;BME280;61829;53.286;10.434;2022-10-15T10:42:32;100509.75;;;19.37;58.59
73558;BME280;61829;53.286;10.434;2022-10-15T10:45:21;100500.25;;;19.22;58.49
73558;BME280;61829;53.286;10.434;2022-10-15T10:47:49;100503.72;;;19.18;58.96
73558;BME280;61829;53.286;10.434;2022-10-15T10:50:28;100503.38;;;19.31;59.23
73558;BME280;61829;53.286;10.434;2022-10-15T10:52:54;100498.56;;;19.38;58.44
73558;BME280;61829;53.286;10.434;2022-10-15T10:55:22;100498.88;;;19.42;58.96
73558;BME280;61829;53.286;10.434;2022-10-15T10:57:56;100497.91;;;19.48;57.95
73558;BME280;61829;53.286;10.434;2022-10-15T11:00:39;100498.09;;;19.63;57.49
73558;BME280;61829;53.286;10.434;2022-10-15T11:03:09;100494.25;;;19.81;57.35
73558;BME280;61829;53.286;10.434;2022-10-15T11:05:42;100489.47;;;19.93;56.57
73558;BME280;61829;53.286;10.434;2022-10-15T11:19:24;100492.19;;;20.42;55.38
73558;BME280;61829;53.286;10.434;2022-10-15T11:25:19;100479.84;;;20.40;54.49
73558;BME280;61829;53.286;10.434;2022-10-15T11:28:18;100485.28;;;20.08;55.30
73558;BME280;61829;53.286;10.434;2022-10-15T11:36:35;100477.94;;;20.13;55.70
73558;BME280;61829;53.286;10.434;2022-10-15T11:55:01;100458.75;;;20.35;50.37
73558;BME280;61829;53.286;10.434;2022-10-15T11:57:31;100458.38;;;20.27;51.09
73558;BME280;61829;53.286;10.434;2022-10-15T12:02:45;100459.03;;;20.12;51.03
73558;BME280;61829;53.286;10.434;2022-10-15T12:05:24;100457.47;;;20.16;51.19
73558;BME280;61829;53.286;10.434;2022-10-15T12:07:52;100457.00;;;20.24;50.36
73558;BME280;61829;53.286;10.434;2022-10-15T12:13:18;100448.50;;;20.26;51.43
73558;BME280;61829;53.286;10.434;2022-10-15T12:32:41;100424.22;;;19.58;53.27
73558;BME280;61829;53.286;10.434;2022-10-15T12:37:40;100419.19;;;19.50;54.97
73558;BME280;61829;53.286;10.434;2022-10-15T12:42:54;100418.56;;;19.43;54.96
73558;BME280;61829;53.286;10.434;2022-10-15T12:45:23;100417.09;;;19.35;56.18
73558;BME280;61829;53.286;10.434;2022-10-15T12:47:51;100425.88;;;19.37;56.10
73558;BME280;61829;53.286;10.434;2022-10-15T12:50:21;100417.91;;;19.36;56.02
73558;BME280;61829;53.286;10.434;2022-10-15T12:52:59;100416.28;;;19.35;56.32
73558;BME280;61829;53.286;10.434;2022-10-15T12:55:38;100414.13;;;19.37;57.06
73558;BME280;61829;53.286;10.434;2022-10-15T13:00:56;100425.06;;;19.37;57.34
73558;BME280;61829;53.286;10.434;2022-10-15T13:03:33;100423.88;;;19.33;57.46
73558;BME280;61829;53.286;10.434;2022-10-15T13:11:26;100423.28;;;19.09;57.86
73558;BME280;61829;53.286;10.434;2022-10-15T13:13:59;100427.03;;;19.02;57.21
73558;BME280;61829;53.286;10.434;2022-10-15T13:16:26;100432.56;;;18.91;57.80
73558;BME280;61829;53.286;10.434;2022-10-15T13:18:53;100425.72;;;18.88;57.37
73558;BME280;61829;53.286;10.434;2022-10-15T13:21:20;100426.78;;;18.87;57.62
73558;BME280;61829;53.286;10.434;2022-10-15T13:23:49;100424.81;;;18.82;56.73
73558;BME280;61829;53.286;10.434;2022-10-15T13:26:20;100426.06;;;18.75;57.48
73558;BME280;61829;53.286;10.434;2022-10-15T13:28:47;100419.16;;;18.72;58.25
73558;BME280;61829;53.286;10.434;2022-10-15T13:33:45;100414.19;;;18.69;58.49
73558;BME280;61829;53.286;10.434;2022-10-15T13:36:19;100418.16;;;18.61;58.68
73558;BME280;61829;53.286;10.434;2022-10-15T13:38:49;100423.31;;;18.58;59.12
73558;BME280;61829;53.286;10.434;2022-10-15T13:41:22;100414.53;;;18.56;58.94
73558;BME280;61829;53.286;10.434;2022-10-15T13:43:52;100416.66;;;18.54;59.59
73558;BME280;61829;53.286;10.434;2022-10-15T13:46:22;100406.25;;;18.51;59.29
73558;BME280;61829;53.286;10.434;2022-10-15T13:48:48;100411.72;;;18.51;59.81
73558;BME280;61829;53.286;10.434;2022-10-15T13:51:16;100409.47;;;18.48;58.99
73558;BME280;61829;53.286;10.434;2022-10-15T13:53:45;100400.16;;;18.44;59.92
73558;BME280;61829;53.286;10.434;2022-10-15T13:56:30;100401.19;;;18.43;60.18
73558;BME280;61829;53.286;10.434;2022-10-15T13:58:59;100391.69;;;18.45;60.07
73558;BME280;61829;53.286;10.434;2022-10-15T14:01:27;100388.06;;;18.39;60.60
73558;BME280;61829;53.286;10.434;2022-10-15T14:04:00;100389.38;;;18.37;61.20
73558;BME280;61829;53.286;10.434;2022-10-15T14:08:58;100367.22;;;18.33;60.59
73558;BME280;61829;53.286;10.434;2022-10-15T14:11:25;100365.00;;;18.30;61.24
73558;BME280;61829;53.286;10.434;2022-10-15T14:13:54;100367.72;;;18.30;62.51
73558;BME280;61829;53.286;10.434;2022-10-15T14:16:44;100371.69;;;18.23;62.24
73558;BME280;61829;53.286;10.434;2022-10-15T14:19:17;100369.22;;;18.21;61.96
73558;BME280;61829;53.286;10.434;2022-10-15T14:21:47;100365.47;;;18.10;62.58
73558;BME280;61829;53.286;10.434;2022-10-15T14:24:22;100373.00;;;18.03;63.31
73558;BME280;61829;53.286;10.434;2022-10-15T14:26:49;100374.31;;;18.01;64.16
73558;BME280;61829;53.286;10.434;2022-10-15T14:29:25;100375.47;;;18.05;63.85
73558;BME280;61829;53.286;10.434;2022-10-15T14:31:52;100368.69;;;18.07;63.97
73558;BME280;61829;53.286;10.434;2022-10-15T14:36:55;100368.38;;;18.04;64.25
73558;BME280;61829;53.286;10.434;2022-10-15T14:39:34;100366.63;;;17.98;64.42
73558;BME280;61829;53.286;10.434;2022-10-15T14:42:05;100354.53;;;17.93;64.67
73558;BME280;61829;53.286;10.434;2022-10-15T14:44:45;100358.59;;;17.91;64.58
73558;BME280;61829;53.286;10.434;2022-10-15T14:47:29;100354.94;;;17.85;65.09
73558;BME280;61829;53.286;10.434;2022-10-15T14:49:59;100364.44;;;17.83;65.73
73558;BME280;61829;53.286;10.434;2022-10-15T14:52:26;100371.44;;;17.79;65.83
73558;BME280;61829;53.286;10.434;2022-10-15T14:55:01;100363.28;;;17.79;66.18
73558;BME280;61829;53.286;10.434;2022-10-15T14:57:35;100377.09;;;17.77;66.27
73558;BME280;61829;53.286;10.434;2022-10-15T15:00:05;100368.25;;;17.70;66.29
73558;BME280;61829;53.286;10.434;2022-10-15T15:02:37;100369.56;;;17.67;67.02
73558;BME280;61829;53.286;10.434;2022-10-15T15:05:24;100368.16;;;17.65;67.17
73558;BME280;61829;53.286;10.434;2022-10-15T15:07:50;100365.09;;;17.61;66.97
73558;BME280;61829;53.286;10.434;2022-10-15T15:10:16;100362.50;;;17.55;67.42
73558;BME280;61829;53.286;10.434;2022-10-15T15:12:47;100355.88;;;17.50;67.79
73558;BME280;61829;53.286;10.434;2022-10-15T15:15:17;100345.47;;;17.47;67.63
73558;BME280;61829;53.286;10.434;2022-10-15T15:17:43;100347.03;;;17.43;67.90